createdAt,value
2017-07-26T00:00:27.958Z,17.22
2017-07-26T00:01:27.981Z,17.25
2017-07-26T00:02:28.005Z,17.23
2017-07-26T00:03:28.032Z,17.25
2017-07-26T00:04:28.063Z,17.22
2017-07-26T00:05:28.082Z,17.26
2017-07-26T00:06:28.119Z,17.15
2017-07-26T00:07:28.135Z,17.19
2017-07-26T00:08:28.142Z,17.18
2017-07-26T00:09:42.783Z,17.21
2017-07-26T00:10:28.198Z,17.16
2017-07-26T00:11:28.241Z,17.21
2017-07-26T00:12:28.247Z,17.19
2017-07-26T00:13:28.281Z,17.23
2017-07-26T00:14:28.299Z,17.16
2017-07-26T00:15:28.324Z,17.19
2017-07-26T00:16:28.035Z,17.25
2017-07-26T00:17:42.967Z,17.16
2017-07-26T00:18:28.394Z,17.22
2017-07-26T00:19:28.427Z,17.19
2017-07-26T00:20:28.428Z,17.12
2017-07-26T00:21:28.470Z,17.23
2017-07-26T00:22:28.484Z,17.19
2017-07-26T00:23:28.521Z,17.15
2017-07-26T00:24:28.542Z,17.12
2017-07-26T00:25:28.556Z,17.15
2017-07-26T00:26:28.579Z,17.15
2017-07-26T00:27:28.621Z,17.11
2017-07-26T00:28:28.645Z,17.15
2017-07-26T00:29:28.641Z,17.15
2017-07-26T00:30:28.675Z,17.14
2017-07-26T00:31:28.706Z,17.08
2017-07-26T00:32:28.732Z,17.12
2017-07-26T00:33:43.350Z,17.14
2017-07-26T00:34:28.784Z,17.12
2017-07-26T00:35:28.794Z,17.14
2017-07-26T00:36:28.519Z,17.15
2017-07-26T00:38:28.870Z,17.14
2017-07-26T00:39:28.905Z,17.11
2017-07-26T00:40:28.917Z,17.14
2017-07-26T00:41:28.951Z,17.03
2017-07-26T00:42:28.971Z,17.06
2017-07-26T00:43:28.987Z,17.14
2017-07-26T00:44:43.619Z,17.15
2017-07-26T00:45:29.059Z,17.12
2017-07-26T00:46:29.069Z,17.16
2017-07-26T00:47:29.088Z,17.11
2017-07-26T00:48:29.177Z,17.06
2017-07-26T00:49:43.746Z,17.15
2017-07-26T00:50:29.153Z,17.16
2017-07-26T00:51:29.195Z,17.01
2017-07-26T00:52:29.219Z,17.06
2017-07-26T00:53:29.246Z,17.18
2017-07-26T00:54:29.271Z,17.12
2017-07-26T00:55:29.296Z,17.15
2017-07-26T00:56:29.301Z,17.08
2017-07-26T00:58:29.346Z,17.04
2017-07-26T00:59:29.390Z,17.07
2017-07-26T01:00:29.424Z,17.14
2017-07-26T01:01:29.432Z,17.18
2017-07-26T01:02:29.458Z,17.19
2017-07-26T01:03:29.478Z,17.08
2017-07-26T01:04:29.495Z,17.07
2017-07-26T01:05:44.111Z,17
2017-07-26T01:06:29.560Z,17.15
2017-07-26T01:07:44.163Z,17.11
2017-07-26T01:08:28.979Z,17.11
2017-07-26T01:09:29.614Z,17.06
2017-07-26T01:10:29.650Z,17.06
2017-07-26T01:11:44.273Z,17.06
2017-07-26T01:12:29.703Z,17.07
2017-07-26T01:13:29.693Z,17.04
2017-07-26T01:15:29.464Z,17.07
2017-07-26T01:16:29.784Z,17.03
2017-07-26T01:17:29.794Z,17.06
2017-07-26T01:18:29.535Z,17.03
2017-07-26T01:19:29.860Z,16.96
2017-07-26T01:20:44.493Z,17.03
2017-07-26T01:21:29.912Z,17.01
2017-07-26T01:22:44.520Z,17.07
2017-07-26T01:23:29.963Z,17
2017-07-26T01:24:29.957Z,16.98
2017-07-26T01:25:30.018Z,16.89
2017-07-26T01:26:30.017Z,16.97
2017-07-26T01:27:30.046Z,17.01
2017-07-26T01:28:30.079Z,17.03
2017-07-26T01:29:30.090Z,17.01
2017-07-26T01:30:30.130Z,17
2017-07-26T01:31:30.161Z,17.03
2017-07-26T01:32:30.179Z,17.07
2017-07-26T01:34:30.220Z,16.89
2017-07-26T01:35:30.234Z,16.97
2017-07-26T01:36:44.875Z,17.04
2017-07-26T01:38:30.324Z,17
2017-07-26T01:39:30.325Z,17.03
2017-07-26T01:40:30.364Z,16.97
2017-07-26T01:41:30.373Z,16.93
2017-07-26T01:43:30.437Z,16.83
2017-07-26T01:44:30.463Z,16.91
2017-07-26T01:45:30.488Z,16.82
2017-07-26T01:46:30.502Z,16.91
2017-07-26T01:47:30.544Z,16.93
2017-07-26T01:48:30.557Z,16.93
2017-07-26T01:49:30.584Z,16.98
2017-07-26T01:51:30.619Z,16.98
2017-07-26T01:52:45.254Z,16.91
2017-07-26T01:53:30.366Z,16.94
2017-07-26T01:54:30.707Z,16.96
2017-07-26T01:55:30.716Z,16.98
2017-07-26T01:56:30.762Z,16.96
2017-07-26T01:57:30.770Z,16.83
2017-07-26T01:58:30.802Z,16.86
2017-07-26T01:59:45.101Z,16.88
2017-07-26T02:00:30.846Z,16.83
2017-07-26T02:01:30.874Z,16.86
2017-07-26T02:02:30.896Z,16.82
2017-07-26T02:03:45.516Z,16.79
2017-07-26T02:04:30.951Z,16.81
2017-07-26T02:05:30.968Z,16.85
2017-07-26T02:06:45.588Z,16.85
2017-07-26T02:07:31.016Z,16.79
2017-07-26T02:08:45.631Z,16.85
2017-07-26T02:09:31.056Z,16.7
2017-07-26T02:10:31.076Z,16.66
2017-07-26T02:11:31.119Z,16.67
2017-07-26T02:12:31.134Z,16.68
2017-07-26T02:13:31.162Z,16.67
2017-07-26T02:14:31.168Z,16.53
2017-07-26T02:15:31.213Z,16.6
2017-07-26T02:18:31.284Z,16.67
2017-07-26T02:19:30.983Z,16.64
2017-07-26T02:20:31.016Z,16.68
2017-07-26T02:21:31.355Z,16.76
2017-07-26T02:22:31.376Z,16.66
2017-07-26T02:23:31.381Z,16.66
2017-07-26T02:24:46.019Z,16.7
2017-07-26T02:25:31.442Z,16.78
2017-07-26T02:26:31.475Z,16.66
2017-07-26T02:27:31.489Z,16.68
2017-07-26T02:29:31.538Z,16.67
2017-07-26T02:30:31.568Z,16.68
2017-07-26T02:31:31.601Z,16.71
2017-07-26T02:32:31.596Z,16.68
2017-07-26T02:33:31.641Z,16.63
2017-07-26T02:34:31.641Z,16.7
2017-07-26T02:35:31.674Z,16.68
2017-07-26T02:36:31.713Z,16.78
2017-07-26T02:37:31.745Z,16.66
2017-07-26T02:38:31.763Z,16.73
2017-07-26T02:39:31.767Z,16.81
2017-07-26T02:40:46.403Z,16.79
2017-07-26T02:41:31.821Z,16.85
2017-07-26T02:42:31.870Z,16.82
2017-07-26T02:43:31.851Z,16.76
2017-07-26T02:44:31.912Z,16.83
2017-07-26T02:45:31.920Z,16.86
2017-07-26T02:46:46.533Z,16.71
2017-07-26T02:47:31.968Z,16.78
2017-07-26T02:48:31.982Z,16.79
2017-07-26T02:49:46.617Z,16.75
2017-07-26T02:50:32.028Z,16.79
2017-07-26T02:51:32.125Z,16.71
2017-07-26T02:52:32.102Z,16.68
2017-07-26T02:53:32.119Z,16.68
2017-07-26T02:54:32.125Z,16.73
2017-07-26T02:55:46.746Z,16.81
2017-07-26T02:58:32.236Z,16.85
2017-07-26T02:59:32.246Z,16.83
2017-07-26T03:00:32.282Z,16.83
2017-07-26T03:01:32.294Z,16.75
2017-07-26T03:02:32.334Z,16.81
2017-07-26T03:03:32.356Z,16.76
2017-07-26T03:04:32.377Z,16.78
2017-07-26T03:05:32.389Z,16.73
2017-07-26T03:06:47.027Z,16.83
2017-07-26T03:08:32.475Z,16.83
2017-07-26T03:09:32.499Z,16.81
2017-07-26T03:10:32.503Z,16.86
2017-07-26T03:11:32.550Z,16.85
2017-07-26T03:12:32.570Z,16.86
2017-07-26T03:13:32.598Z,16.85
2017-07-26T03:14:32.601Z,16.91
2017-07-26T03:16:32.680Z,16.83
2017-07-26T03:17:32.425Z,16.85
2017-07-26T03:18:32.391Z,16.85
2017-07-26T03:19:32.728Z,16.93
2017-07-26T03:21:47.383Z,16.94
2017-07-26T03:23:32.839Z,16.94
2017-07-26T03:24:32.854Z,16.96
2017-07-26T03:25:32.572Z,16.91
2017-07-26T03:26:32.903Z,16.88
2017-07-26T03:27:47.525Z,16.94
2017-07-26T03:28:32.959Z,16.94
2017-07-26T03:29:32.971Z,16.93
2017-07-26T03:30:32.997Z,16.94
2017-07-26T03:31:33.009Z,16.94
2017-07-26T03:32:33.051Z,16.93
2017-07-26T03:33:47.673Z,16.98
2017-07-26T03:35:33.127Z,16.97
2017-07-26T03:36:33.131Z,16.91
2017-07-26T03:38:33.190Z,16.94
2017-07-26T03:39:33.206Z,16.93
2017-07-26T03:40:33.244Z,16.91
2017-07-26T03:41:32.936Z,16.86
2017-07-26T03:42:33.286Z,17.01
2017-07-26T03:43:47.897Z,16.91
2017-07-26T03:44:33.334Z,16.94
2017-07-26T03:45:33.353Z,17.06
2017-07-26T03:46:33.389Z,17
2017-07-26T03:47:33.417Z,16.91
2017-07-26T03:48:33.417Z,16.89
2017-07-26T03:49:33.482Z,16.97
2017-07-26T03:50:33.470Z,17
2017-07-26T03:51:33.508Z,17.06
2017-07-26T03:52:33.512Z,16.96
2017-07-26T03:53:33.550Z,17.08
2017-07-26T03:54:33.586Z,16.96
2017-07-26T03:55:33.590Z,17.06
2017-07-26T03:56:33.631Z,17.03
2017-07-26T03:57:33.635Z,17.07
2017-07-26T03:59:48.279Z,17.07
2017-07-26T04:00:33.693Z,17.06
2017-07-26T04:01:33.750Z,17.04
2017-07-26T04:02:48.351Z,17.01
2017-07-26T04:03:48.393Z,17.03
2017-07-26T04:04:33.813Z,17
2017-07-26T04:06:33.861Z,17.11
2017-07-26T04:07:33.886Z,17.03
2017-07-26T04:08:33.901Z,17.01
2017-07-26T04:09:33.916Z,17.08
2017-07-26T04:11:33.984Z,17.06
2017-07-26T04:12:34.001Z,17.01
2017-07-26T04:13:34.043Z,17.11
2017-07-26T04:15:48.677Z,17.01
2017-07-26T04:16:34.091Z,17.06
2017-07-26T04:18:34.144Z,17.14
2017-07-26T04:19:34.161Z,17.14
2017-07-26T04:20:34.188Z,17.14
2017-07-26T04:21:34.222Z,17.22
2017-07-26T04:22:34.271Z,17.11
2017-07-26T04:24:34.296Z,17.14
2017-07-26T04:25:34.317Z,17.16
2017-07-26T04:26:34.348Z,17.16
2017-07-26T04:27:34.362Z,17.16
2017-07-26T04:28:34.440Z,17.22
2017-07-26T04:29:48.704Z,17.23
2017-07-26T04:30:49.042Z,17.16
2017-07-26T04:31:34.465Z,17.25
2017-07-26T04:32:34.472Z,17.19
2017-07-26T04:33:34.510Z,17.22
2017-07-26T04:34:48.817Z,17.23
2017-07-26T04:36:34.585Z,17.28
2017-07-26T04:37:34.596Z,17.22
2017-07-26T04:38:34.632Z,17.21
2017-07-26T04:39:34.663Z,17.16
2017-07-26T04:40:34.674Z,17.23
2017-07-26T04:41:34.681Z,17.21
2017-07-26T04:42:34.707Z,17.28
2017-07-26T04:43:49.345Z,17.34
2017-07-26T04:44:34.778Z,17.23
2017-07-26T04:45:49.405Z,17.16
2017-07-26T04:46:34.517Z,17.23
2017-07-26T04:47:34.825Z,17.21
2017-07-26T04:49:34.892Z,17.21
2017-07-26T04:50:34.916Z,17.16
2017-07-26T04:51:34.940Z,17.25
2017-07-26T04:52:34.952Z,17.15
2017-07-26T04:53:35.013Z,17.25
2017-07-26T04:54:34.996Z,17.23
2017-07-26T04:55:35.041Z,17.19
2017-07-26T04:56:35.065Z,17.15
2017-07-26T04:57:35.083Z,17.25
2017-07-26T04:58:35.090Z,17.19
2017-07-26T04:59:35.129Z,17.16
2017-07-26T05:00:34.848Z,17.25
2017-07-26T05:01:35.191Z,17.22
2017-07-26T05:02:49.805Z,17.26
2017-07-26T05:03:35.226Z,17.19
2017-07-26T05:04:34.944Z,17.23
2017-07-26T05:05:35.268Z,17.15
2017-07-26T05:06:35.302Z,17.22
2017-07-26T05:07:35.328Z,17.14
2017-07-26T05:08:35.361Z,17.21
2017-07-26T05:09:35.382Z,17.12
2017-07-26T05:10:35.403Z,17.18
2017-07-26T05:11:50.019Z,17.19
2017-07-26T05:12:35.445Z,17.22
2017-07-26T05:13:35.470Z,17.14
2017-07-26T05:14:35.494Z,17.16
2017-07-26T05:15:35.513Z,17.18
2017-07-26T05:16:35.532Z,17.16
2017-07-26T05:17:35.550Z,17.15
2017-07-26T05:18:50.189Z,17.21
2017-07-26T05:20:35.638Z,17.21
2017-07-26T05:21:35.354Z,17.19
2017-07-26T05:22:35.367Z,17.26
2017-07-26T05:25:35.756Z,17.18
2017-07-26T05:26:35.782Z,17.22
2017-07-26T05:27:50.399Z,17.26
2017-07-26T05:28:35.835Z,17.26
2017-07-26T05:29:50.493Z,17.28
2017-07-26T05:30:35.883Z,17.26
2017-07-26T05:31:35.907Z,17.23
2017-07-26T05:32:35.927Z,17.23
2017-07-26T05:33:35.955Z,17.26
2017-07-26T05:34:50.564Z,17.21
2017-07-26T05:35:36.007Z,17.25
2017-07-26T05:36:50.606Z,17.25
2017-07-26T05:37:36.058Z,17.25
2017-07-26T05:38:36.082Z,17.26
2017-07-26T05:39:36.098Z,17.33
2017-07-26T05:40:36.120Z,17.33
2017-07-26T05:41:36.127Z,17.28
2017-07-26T05:42:36.160Z,17.25
2017-07-26T05:43:36.191Z,17.26
2017-07-26T05:44:36.197Z,17.25
2017-07-26T05:45:36.230Z,17.36
2017-07-26T05:46:36.246Z,17.3
2017-07-26T05:47:36.288Z,17.33
2017-07-26T05:48:36.292Z,17.22
2017-07-26T05:49:36.327Z,17.28
2017-07-26T05:50:50.966Z,17.33
2017-07-26T05:51:36.062Z,17.41
2017-07-26T05:52:36.396Z,17.28
2017-07-26T05:53:36.415Z,17.23
2017-07-26T05:54:36.461Z,17.28
2017-07-26T05:55:36.469Z,17.26
2017-07-26T05:56:36.500Z,17.33
2017-07-26T05:57:36.517Z,17.31
2017-07-26T05:58:36.543Z,17.26
2017-07-26T05:59:51.167Z,17.34
2017-07-26T06:00:36.584Z,17.33
2017-07-26T06:01:36.363Z,17.23
2017-07-26T06:02:36.647Z,17.26
2017-07-26T06:03:36.666Z,17.22
2017-07-26T06:04:36.677Z,17.25
2017-07-26T06:05:51.309Z,17.26
2017-07-26T06:06:36.742Z,17.21
2017-07-26T06:07:36.742Z,17.23
2017-07-26T06:08:36.794Z,17.25
2017-07-26T06:09:36.816Z,17.22
2017-07-26T06:10:36.814Z,17.28
2017-07-26T06:11:36.858Z,17.22
2017-07-26T06:12:36.876Z,17.23
2017-07-26T06:14:36.934Z,17.34
2017-07-26T06:15:51.550Z,17.25
2017-07-26T06:16:51.574Z,17.28
2017-07-26T06:17:36.671Z,17.23
2017-07-26T06:18:37.035Z,17.21
2017-07-26T06:19:37.045Z,17.34
2017-07-26T06:20:36.765Z,17.3
2017-07-26T06:21:37.089Z,17.31
2017-07-26T06:22:37.169Z,17.22
2017-07-26T06:23:51.728Z,17.25
2017-07-26T06:24:37.174Z,17.26
2017-07-26T06:25:37.202Z,17.23
2017-07-26T06:26:36.896Z,17.43
2017-07-26T06:27:37.237Z,17.38
2017-07-26T06:28:37.267Z,17.28
2017-07-26T06:29:37.286Z,17.31
2017-07-26T06:30:37.001Z,17.43
2017-07-26T06:31:37.009Z,17.41
2017-07-26T06:32:37.367Z,17.34
2017-07-26T06:33:37.066Z,17.44
2017-07-26T06:35:37.128Z,17.51
2017-07-26T06:36:37.463Z,17.54
2017-07-26T06:37:52.068Z,17.48
2017-07-26T06:38:37.510Z,17.58
2017-07-26T06:39:37.220Z,17.55
2017-07-26T06:40:37.250Z,17.56
2017-07-26T06:41:37.272Z,17.68
2017-07-26T06:42:37.295Z,17.7
2017-07-26T06:43:37.306Z,17.7
2017-07-26T06:44:37.333Z,17.51
2017-07-26T06:45:37.651Z,17.52
2017-07-26T06:46:37.687Z,17.68
2017-07-26T06:47:37.721Z,17.71
2017-07-26T06:48:37.739Z,17.68
2017-07-26T06:49:37.762Z,17.62
2017-07-26T06:50:37.780Z,17.59
2017-07-26T06:51:37.820Z,17.64
2017-07-26T06:52:37.842Z,17.52
2017-07-26T06:53:52.146Z,17.64
2017-07-26T06:54:37.885Z,17.74
2017-07-26T06:55:37.926Z,17.78
2017-07-26T06:56:52.518Z,17.81
2017-07-26T06:57:37.956Z,17.86
2017-07-26T06:58:37.995Z,17.79
2017-07-26T06:59:37.994Z,17.81
2017-07-26T07:00:38.024Z,17.77
2017-07-26T07:01:37.727Z,17.78
2017-07-26T07:02:38.071Z,17.74
2017-07-26T07:03:38.093Z,17.77
2017-07-26T07:04:38.127Z,17.82
2017-07-26T07:06:37.849Z,17.79
2017-07-26T07:07:38.196Z,17.82
2017-07-26T07:08:38.217Z,17.75
2017-07-26T07:09:52.841Z,17.77
2017-07-26T07:10:38.266Z,17.86
2017-07-26T07:11:52.893Z,17.79
2017-07-26T07:12:38.377Z,17.72
2017-07-26T07:13:38.336Z,17.78
2017-07-26T07:15:38.389Z,17.79
2017-07-26T07:16:38.405Z,17.77
2017-07-26T07:17:38.438Z,17.82
2017-07-26T07:18:38.452Z,17.72
2017-07-26T07:19:38.492Z,17.77
2017-07-26T07:20:38.497Z,17.74
2017-07-26T07:21:38.537Z,17.81
2017-07-26T07:22:38.246Z,17.82
2017-07-26T07:23:38.582Z,17.81
2017-07-26T07:24:38.613Z,17.81
2017-07-26T07:25:53.224Z,17.78
2017-07-26T07:26:38.636Z,17.82
2017-07-26T07:27:38.670Z,17.82
2017-07-26T07:28:38.700Z,17.86
2017-07-26T07:29:38.730Z,17.77
2017-07-26T07:30:38.753Z,17.79
2017-07-26T07:31:38.767Z,17.86
2017-07-26T07:32:38.794Z,17.82
2017-07-26T07:34:38.900Z,17.81
2017-07-26T07:35:38.848Z,17.84
2017-07-26T07:36:53.488Z,17.78
2017-07-26T07:37:38.904Z,17.62
2017-07-26T07:38:38.932Z,17.7
2017-07-26T07:39:38.960Z,17.59
2017-07-26T07:40:53.273Z,17.72
2017-07-26T07:41:53.618Z,17.78
2017-07-26T07:42:39.033Z,17.78
2017-07-26T07:43:39.062Z,17.79
2017-07-26T07:44:39.081Z,17.82
2017-07-26T07:45:39.100Z,17.86
2017-07-26T07:46:38.813Z,17.81
2017-07-26T07:47:39.177Z,17.82
2017-07-26T07:48:39.180Z,17.86
2017-07-26T07:49:39.198Z,17.78
2017-07-26T07:50:38.925Z,17.77
2017-07-26T07:51:39.225Z,17.77
2017-07-26T07:52:38.970Z,17.84
2017-07-26T07:53:39.282Z,17.84
2017-07-26T07:54:39.390Z,17.87
2017-07-26T07:55:39.051Z,17.86
2017-07-26T07:56:53.966Z,17.89
2017-07-26T07:57:39.387Z,17.79
2017-07-26T07:58:39.415Z,17.81
2017-07-26T07:59:39.450Z,17.86
2017-07-26T08:00:39.472Z,17.93
2017-07-26T08:01:39.179Z,17.9
2017-07-26T08:02:54.120Z,17.81
2017-07-26T08:03:39.532Z,17.92
2017-07-26T08:04:39.592Z,17.92
2017-07-26T08:06:39.307Z,17.92
2017-07-26T08:07:54.237Z,17.82
2017-07-26T08:08:39.657Z,17.87
2017-07-26T08:09:39.429Z,17.84
2017-07-26T08:10:39.708Z,17.81
2017-07-26T08:11:39.743Z,17.84
2017-07-26T08:12:54.356Z,17.86
2017-07-26T08:13:39.790Z,17.71
2017-07-26T08:14:39.813Z,17.82
2017-07-26T08:15:39.833Z,17.9
2017-07-26T08:16:39.849Z,17.87
2017-07-26T08:17:39.880Z,17.93
2017-07-26T08:18:39.897Z,17.95
2017-07-26T08:19:39.930Z,17.82
2017-07-26T08:20:39.635Z,17.81
2017-07-26T08:21:39.665Z,17.9
2017-07-26T08:22:39.693Z,17.87
2017-07-26T08:23:40.019Z,17.96
2017-07-26T08:24:39.738Z,17.92
2017-07-26T08:25:40.078Z,17.92
2017-07-26T08:26:39.772Z,17.84
2017-07-26T08:27:40.140Z,17.93
2017-07-26T08:28:54.430Z,17.9
2017-07-26T08:29:40.168Z,17.95
2017-07-26T08:30:54.780Z,17.93
2017-07-26T08:31:54.822Z,17.87
2017-07-26T08:32:39.946Z,17.9
2017-07-26T08:33:40.251Z,17.84
2017-07-26T08:34:40.299Z,17.96
2017-07-26T08:35:40.315Z,17.99
2017-07-26T08:36:40.328Z,17.93
2017-07-26T08:37:54.957Z,17.95
2017-07-26T08:38:40.388Z,17.97
2017-07-26T08:39:40.417Z,17.96
2017-07-26T08:40:40.461Z,18.08
2017-07-26T08:41:40.457Z,18.08
2017-07-26T08:42:40.472Z,18.07
2017-07-26T08:43:40.511Z,18.1
2017-07-26T08:44:55.125Z,18.14
2017-07-26T08:45:40.558Z,18.11
2017-07-26T08:46:40.572Z,17.92
2017-07-26T08:47:40.609Z,17.95
2017-07-26T08:48:40.307Z,18.03
2017-07-26T08:49:40.653Z,17.96
2017-07-26T08:50:40.373Z,17.92
2017-07-26T08:51:40.748Z,18.1
2017-07-26T08:52:40.715Z,18.07
2017-07-26T08:53:40.759Z,18.05
2017-07-26T08:54:40.778Z,18.14
2017-07-26T08:56:40.818Z,18.07
2017-07-26T08:57:40.541Z,18.1
2017-07-26T08:58:40.852Z,18.12
2017-07-26T08:59:40.575Z,17.97
2017-07-26T09:01:40.933Z,18.11
2017-07-26T09:02:40.663Z,18.07
2017-07-26T09:03:40.694Z,18.11
2017-07-26T09:04:41.003Z,18.12
2017-07-26T09:05:41.028Z,18.1
2017-07-26T09:06:41.066Z,18.11
2017-07-26T09:07:40.784Z,18.25
2017-07-26T09:08:41.113Z,18.18
2017-07-26T09:09:40.836Z,18.1
2017-07-26T09:11:40.875Z,18.11
2017-07-26T09:12:40.887Z,18.11
2017-07-26T09:13:40.914Z,18.18
2017-07-26T09:14:40.953Z,18.25
2017-07-26T09:16:55.591Z,18.14
2017-07-26T09:17:41.022Z,18.12
2017-07-26T09:18:41.338Z,18.15
2017-07-26T09:19:41.380Z,18.12
2017-07-26T09:20:41.413Z,18.2
2017-07-26T09:21:41.415Z,18.11
2017-07-26T09:22:41.154Z,18.07
2017-07-26T09:23:41.477Z,18.14
2017-07-26T09:24:41.491Z,18.33
2017-07-26T09:25:56.120Z,18.39
2017-07-26T09:26:41.235Z,18.27
2017-07-26T09:27:41.266Z,18.23
2017-07-26T09:28:41.596Z,18.36
2017-07-26T09:29:41.628Z,18.3
2017-07-26T09:30:41.648Z,18.35
2017-07-26T09:32:41.376Z,18.33
2017-07-26T09:33:41.725Z,18.41
2017-07-26T09:34:41.434Z,18.41
2017-07-26T09:35:41.772Z,18.42
2017-07-26T09:36:41.799Z,18.37
2017-07-26T09:37:41.188Z,18.27
2017-07-26T09:38:41.847Z,18.23
2017-07-26T09:39:41.857Z,18.23
2017-07-26T09:40:41.897Z,18.25
2017-07-26T09:41:41.904Z,18.44
2017-07-26T09:42:41.627Z,18.3
2017-07-26T09:43:41.947Z,18.2
2017-07-26T09:44:56.585Z,18.26
2017-07-26T09:45:42.010Z,18.29
2017-07-26T09:46:42.048Z,18.33
2017-07-26T09:47:56.657Z,18.41
2017-07-26T09:48:42.088Z,18.36
2017-07-26T09:49:42.103Z,18.23
2017-07-26T09:50:42.139Z,18.25
2017-07-26T09:51:42.164Z,18.44
2017-07-26T09:52:42.188Z,18.36
2017-07-26T09:53:41.914Z,18.27
2017-07-26T09:54:42.240Z,18.41
2017-07-26T09:55:56.856Z,18.39
2017-07-26T09:57:42.308Z,18.41
2017-07-26T09:58:42.323Z,18.36
2017-07-26T09:59:42.348Z,18.41
2017-07-26T10:00:42.374Z,18.52
2017-07-26T10:01:42.413Z,18.42
2017-07-26T10:02:42.416Z,18.51
2017-07-26T10:03:57.059Z,18.48
2017-07-26T10:04:42.528Z,18.48
2017-07-26T10:05:42.493Z,18.51
2017-07-26T10:06:42.520Z,18.41
2017-07-26T10:07:42.552Z,18.47
2017-07-26T10:08:42.575Z,18.41
2017-07-26T10:09:42.596Z,18.37
2017-07-26T10:10:42.641Z,18.39
2017-07-26T10:11:42.643Z,18.36
2017-07-26T10:12:42.681Z,18.42
2017-07-26T10:13:42.681Z,18.41
2017-07-26T10:14:42.717Z,18.39
2017-07-26T10:15:42.743Z,18.44
2017-07-26T10:16:42.752Z,18.42
2017-07-26T10:17:42.782Z,18.41
2017-07-26T10:18:42.823Z,18.39
2017-07-26T10:19:57.436Z,18.41
2017-07-26T10:20:57.474Z,18.42
2017-07-26T10:22:42.920Z,18.36
2017-07-26T10:23:42.924Z,18.54
2017-07-26T10:24:42.957Z,18.45
2017-07-26T10:25:42.992Z,18.45
2017-07-26T10:26:43.021Z,18.37
2017-07-26T10:27:42.738Z,18.42
2017-07-26T10:28:43.060Z,18.52
2017-07-26T10:29:43.090Z,18.44
2017-07-26T10:30:43.137Z,18.44
2017-07-26T10:31:57.729Z,18.44
2017-07-26T10:32:43.155Z,18.41
2017-07-26T10:33:43.182Z,18.55
2017-07-26T10:34:43.213Z,18.44
2017-07-26T10:35:57.820Z,18.51
2017-07-26T10:36:43.261Z,18.5
2017-07-26T10:37:57.866Z,18.42
2017-07-26T10:38:43.297Z,18.47
2017-07-26T10:39:43.319Z,18.47
2017-07-26T10:40:43.365Z,18.55
2017-07-26T10:41:43.384Z,18.48
2017-07-26T10:42:43.415Z,18.54
2017-07-26T10:43:43.425Z,18.62
2017-07-26T10:44:43.456Z,18.63
2017-07-26T10:45:43.478Z,18.63
2017-07-26T10:46:43.500Z,18.62
2017-07-26T10:47:43.504Z,18.65
2017-07-26T10:48:42.935Z,18.58
2017-07-26T10:49:43.565Z,18.57
2017-07-26T10:50:58.200Z,18.67
2017-07-26T10:51:43.622Z,18.58
2017-07-26T10:52:43.659Z,18.69
2017-07-26T10:53:43.356Z,18.69
2017-07-26T10:54:43.699Z,18.57
2017-07-26T10:55:43.411Z,18.51
2017-07-26T10:56:58.346Z,18.6
2017-07-26T10:57:43.770Z,18.63
2017-07-26T10:58:43.799Z,18.58
2017-07-26T10:59:43.803Z,18.65
2017-07-26T11:00:43.539Z,18.7
2017-07-26T11:01:43.860Z,18.62
2017-07-26T11:03:43.914Z,18.57
2017-07-26T11:04:43.944Z,18.36
2017-07-26T11:05:43.976Z,18.52
2017-07-26T11:06:43.994Z,18.55
2017-07-26T11:07:44.017Z,18.65
2017-07-26T11:08:44.033Z,18.58
2017-07-26T11:09:44.061Z,18.58
2017-07-26T11:10:44.090Z,18.5
2017-07-26T11:11:44.118Z,18.52
2017-07-26T11:12:44.129Z,18.62
2017-07-26T11:13:44.153Z,18.78
2017-07-26T11:14:44.198Z,18.72
2017-07-26T11:15:43.906Z,18.69
2017-07-26T11:16:44.220Z,18.8
2017-07-26T11:17:43.943Z,18.65
2017-07-26T11:18:44.270Z,18.7
2017-07-26T11:19:58.599Z,18.67
2017-07-26T11:20:44.331Z,18.73
2017-07-26T11:21:44.363Z,18.67
2017-07-26T11:22:58.979Z,18.62
2017-07-26T11:23:44.396Z,18.58
2017-07-26T11:24:44.438Z,18.66
2017-07-26T11:25:44.447Z,18.69
2017-07-26T11:26:44.483Z,18.69
2017-07-26T11:27:44.498Z,18.63
2017-07-26T11:28:44.532Z,18.72
2017-07-26T11:29:44.559Z,18.6
2017-07-26T11:30:44.577Z,18.62
2017-07-26T11:31:59.200Z,18.78
2017-07-26T11:32:44.616Z,18.69
2017-07-26T11:33:44.657Z,18.62
2017-07-26T11:34:44.663Z,18.67
2017-07-26T11:35:44.716Z,18.66
2017-07-26T11:36:44.732Z,18.76
2017-07-26T11:37:44.439Z,18.6
2017-07-26T11:38:59.381Z,18.6
2017-07-26T11:39:44.808Z,18.58
2017-07-26T11:40:44.820Z,18.6
2017-07-26T11:41:44.857Z,18.6
2017-07-26T11:42:44.861Z,18.42
2017-07-26T11:43:44.906Z,18.37
2017-07-26T11:44:44.919Z,18.55
2017-07-26T11:45:44.950Z,18.48
2017-07-26T11:46:44.950Z,18.54
2017-07-26T11:47:59.593Z,18.58
2017-07-26T11:48:45.005Z,18.66
2017-07-26T11:50:45.069Z,18.57
2017-07-26T11:51:45.087Z,18.67
2017-07-26T11:52:45.119Z,18.57
2017-07-26T11:53:44.839Z,18.69
2017-07-26T11:54:59.760Z,18.58
2017-07-26T11:55:45.201Z,18.42
2017-07-26T11:56:45.205Z,18.5
2017-07-26T11:57:45.238Z,18.5
2017-07-26T11:58:45.250Z,18.5
2017-07-26T11:59:45.273Z,18.51
2017-07-26T12:00:59.913Z,18.41
2017-07-26T12:01:45.339Z,18.42
2017-07-26T12:02:45.350Z,18.58
2017-07-26T12:03:45.070Z,18.65
2017-07-26T12:04:45.405Z,18.58
2017-07-26T12:05:45.442Z,18.5
2017-07-26T12:06:45.158Z,18.6
2017-07-26T12:07:45.491Z,18.58
2017-07-26T12:08:45.503Z,18.58
2017-07-26T12:09:45.538Z,18.7
2017-07-26T12:11:00.156Z,18.69
2017-07-26T12:11:45.575Z,18.73
2017-07-26T12:12:45.616Z,18.65
2017-07-26T12:13:45.613Z,18.63
2017-07-26T12:14:45.666Z,18.62
2017-07-26T12:15:45.666Z,18.6
2017-07-26T12:16:45.388Z,18.69
2017-07-26T12:17:45.732Z,18.65
2017-07-26T12:18:45.758Z,18.62
2017-07-26T12:20:45.790Z,18.66
2017-07-26T12:21:45.509Z,18.52
2017-07-26T12:22:45.859Z,18.45
2017-07-26T12:24:45.895Z,18.36
2017-07-26T12:27:00.558Z,18.42
2017-07-26T12:27:46.170Z,18.33
2017-07-26T12:28:46.010Z,18.39
2017-07-26T12:29:46.020Z,18.3
2017-07-26T12:30:46.054Z,18.29
2017-07-26T12:31:46.080Z,18.41
2017-07-26T12:32:46.076Z,18.37
2017-07-26T12:33:46.116Z,18.41
2017-07-26T12:34:46.160Z,18.26
2017-07-26T12:36:00.769Z,18.26
2017-07-26T12:36:46.201Z,18.25
2017-07-26T12:37:45.898Z,18.3
2017-07-26T12:38:46.247Z,18.29
2017-07-26T12:40:00.876Z,18.3
2017-07-26T12:40:45.979Z,18.23
2017-07-26T12:41:46.318Z,18.27
2017-07-26T12:42:46.396Z,18.23
2017-07-26T12:43:46.364Z,18.18
2017-07-26T12:44:46.068Z,18.29
2017-07-26T12:45:46.103Z,18.27
2017-07-26T12:46:46.442Z,18.29
2017-07-26T12:47:46.467Z,18.17
2017-07-26T12:48:46.481Z,18.11
2017-07-26T12:49:46.510Z,18.12
2017-07-26T12:50:46.536Z,18.11
2017-07-26T12:51:46.566Z,18.12
2017-07-26T12:53:46.586Z,18.08
2017-07-26T12:55:46.659Z,18.08
2017-07-26T12:56:46.680Z,18.15
2017-07-26T12:58:01.313Z,18.17
2017-07-26T12:58:46.724Z,18.14
2017-07-26T12:59:46.760Z,18.12
2017-07-26T13:00:46.774Z,18.08
2017-07-26T13:01:46.799Z,18.08
2017-07-26T13:02:46.816Z,18.07
2017-07-26T13:03:46.890Z,18.07
2017-07-26T13:04:46.565Z,18.08
2017-07-26T13:05:46.586Z,18.12
2017-07-26T13:06:46.937Z,18.11
2017-07-26T13:07:46.940Z,18.07
2017-07-26T13:10:46.704Z,18.21
2017-07-26T13:11:47.043Z,18.1
2017-07-26T13:14:01.693Z,18.32
2017-07-26T13:14:47.126Z,18.18
2017-07-26T13:15:47.147Z,18.29
2017-07-26T13:17:47.179Z,18.37
2017-07-26T13:18:47.219Z,18.36
2017-07-26T13:19:47.291Z,18.42
2017-07-26T13:20:47.267Z,18.42
2017-07-26T13:21:47.296Z,18.39
2017-07-26T13:23:01.911Z,18.41
2017-07-26T13:23:47.328Z,18.26
2017-07-26T13:24:47.367Z,18.3
2017-07-26T13:25:47.389Z,18.41
2017-07-26T13:26:47.414Z,18.39
2017-07-26T13:27:47.415Z,18.42
2017-07-26T13:28:47.462Z,18.41
2017-07-26T13:30:02.079Z,18.32
2017-07-26T13:31:47.547Z,18.21
2017-07-26T13:32:47.534Z,18.27
2017-07-26T13:33:47.591Z,18.25
2017-07-26T13:34:47.595Z,18.27
2017-07-26T13:35:47.631Z,18.25
2017-07-26T13:36:47.639Z,18.29
2017-07-26T13:37:47.675Z,18.14
2017-07-26T13:38:47.702Z,18.1
2017-07-26T13:39:47.724Z,18.21
2017-07-26T13:40:47.762Z,18.21
2017-07-26T13:41:47.821Z,18.26
2017-07-26T13:42:47.794Z,18.14
2017-07-26T13:43:47.828Z,18.12
2017-07-26T13:44:47.524Z,18.11
2017-07-26T13:46:02.156Z,18.14
2017-07-26T13:46:47.900Z,18.12
2017-07-26T13:47:47.900Z,18.17
2017-07-26T13:48:47.630Z,18.18